Blue Star Naxos — SZUI — position and weather

sailwx.info

Track history (hours):
 
Tides and Currents Weather Stations Pressure Air Temp Water Temp Dewpoint Dewpoint Depression Visibility Wind Speed Wind Dir Waves Ship Positions

Blue Star Naxos

Last reported at 2016-Jul-02 04:33 UTC. Time now 2016-Jul-02 05:49 UTC.
Position N 37°57' E 023°38'.

Length 124 m; draft 5 m.

Type: Passenger vessel. MMSI: 239923000.

Date/timePositionNaut miles runAvg speedWind from/ knotsBaromVisibWave heightAir tempDewpointWater temp
2016-Jul-02 04:33N 37°57' E 023°38'0 0.1
2016-Jul-02 03:33N 37°57' E 023°38'0 0.0
2016-Jul-02 02:33N 37°57' E 023°38'0 0.0
2016-Jul-02 01:33N 37°57' E 023°38'0 0.0
2016-Jul-02 00:34N 37°57' E 023°38'0 0.0
2016-Jul-01 23:33N 37°57' E 023°38'0 0.0
2016-Jul-01 22:34N 37°57' E 023°38'0 0.0
2016-Jul-01 21:33N 37°57' E 023°38'0 0.0
2016-Jul-01 20:33N 37°57' E 023°38'0 0.0
2016-Jul-01 19:34N 37°57' E 023°38'0 0.0
2016-Jul-01 18:33N 37°57' E 023°38'0 0.0
2016-Jul-01 17:33N 37°57' E 023°38'6 6.2
2016-Jul-01 16:33N 37°51' E 023°40'2121.0
2016-Jul-01 15:33N 37°37' E 024°00'5015.7
2016-Jul-01 12:23N 37°29' E 025°02'1213.3
2016-Jul-01 11:29N 37°29' E 025°17'2 2.2
2016-Jul-01 10:34N 37°28' E 025°19'9 9.1
2016-Jul-01 09:34N 37°32' E 025°09'6516.3
2016-Jul-01 05:33N 37°39' E 023°47'1919.3
2016-Jul-01 04:33N 37°57' E 023°38'0 0.2
2016-Jul-01 03:33N 37°57' E 023°38'0 0.0
2016-Jul-01 02:33N 37°57' E 023°38'0 0.0
2016-Jul-01 01:33N 37°57' E 023°38'1514.7
2016-Jul-01 00:34N 37°43' E 023°44'1919.0
2016-Jun-30 23:33N 37°30' E 024°02'4420.9
2016-Jun-30 21:26N 37°10' E 024°52'2412.7
2016-Jun-30 19:33N 37°07' E 025°21'8 7.7
2016-Jun-30 18:34N 36°59' E 025°20'7 0.8
2016-Jun-30 09:33N 37°06' E 025°21'2110.4
2016-Jun-30 07:33N 37°12' E 024°56'6622.1
2016-Jun-30 04:34N 37°42' E 023°41'1514.7
2016-Jun-30 03:33N 37°57' E 023°38'0 0.0
2016-Jun-30 02:33N 37°57' E 023°38'0 0.0
2016-Jun-30 01:33N 37°57' E 023°38'0 0.0
2016-Jun-30 00:33N 37°57' E 023°38'0 0.0
2016-Jun-29 23:34N 37°57' E 023°38'0 0.0
2016-Jun-29 22:34N 37°57' E 023°38'0 0.0
2016-Jun-29 21:34N 37°57' E 023°38'0 0.0
2016-Jun-29 20:34N 37°57' E 023°38'0 0.0
2016-Jun-29 19:33N 37°57' E 023°38'0 0.0
2016-Jun-29 18:34N 37°57' E 023°38'0 0.0
2016-Jun-29 17:33N 37°57' E 023°38'2 2.4
2016-Jun-29 16:34N 37°54' E 023°38'2120.7
2016-Jun-29 15:33N 37°39' E 023°55'5516.8
2016-Jun-29 12:18N 37°29' E 025°03'1012.0
2016-Jun-29 11:27N 37°29' E 025°16'3 3.5
2016-Jun-29 10:33N 37°28' E 025°19'8 8.3
2016-Jun-29 09:33N 37°32' E 025°10'6516.3
2016-Jun-29 05:33N 37°39' E 023°49'2019.7
2016-Jun-29 04:33N 37°56' E 023°38'1 0.6
2016-Jun-29 03:33N 37°57' E 023°38'0 0.0
2016-Jun-29 02:33N 37°57' E 023°38'0 0.0
2016-Jun-29 01:33N 37°57' E 023°38'1515.0
2016-Jun-29 00:33N 37°43' E 023°45'2019.2
2016-Jun-28 23:31N 37°29' E 024°03'4320.8
2016-Jun-28 21:27N 37°10' E 024°51'2513.1
2016-Jun-28 19:34N 37°06' E 025°22'7 6.7
2016-Jun-28 18:33N 36°60' E 025°20'6 0.7
2016-Jun-28 09:33N 37°06' E 025°21'8617.3
2016-Jun-28 04:33N 37°42' E 023°42'1515.1
2016-Jun-28 03:32N 37°57' E 023°38'0 0.0
2016-Jun-28 02:27N 37°57' E 023°38'0 0.0
2016-Jun-28 01:32N 37°57' E 023°38'0 0.0
2016-Jun-28 00:33N 37°57' E 023°38'0 0.0
2016-Jun-27 23:33N 37°57' E 023°38'0 0.0
2016-Jun-27 22:33N 37°57' E 023°38'0 0.0
2016-Jun-27 21:33N 37°57' E 023°38'0 0.0
2016-Jun-27 20:33N 37°57' E 023°38'0 0.0
2016-Jun-27 19:33N 37°57' E 023°38'0 0.0
2016-Jun-27 18:33N 37°57' E 023°38'0 0.0
2016-Jun-27 17:33N 37°57' E 023°38'4 4.2
2016-Jun-27 16:33N 37°53' E 023°39'2120.8
2016-Jun-27 15:33N 37°38' E 023°57'5316.7
2016-Jun-27 12:23N 37°29' E 025°03'8 9.8
2016-Jun-27 11:34N 37°30' E 025°13'6 6.1
2016-Jun-27 10:33N 37°28' E 025°20'5 5.0
2016-Jun-27 09:33N 37°30' E 025°14'2311.6
2016-Jun-27 07:33N 37°31' E 024°45'4522.5
2016-Jun-27 05:34N 37°39' E 023°49'2019.7
2016-Jun-27 04:33N 37°57' E 023°38'0 0.4
2016-Jun-27 03:33N 37°57' E 023°38'0 0.0
2016-Jun-27 02:33N 37°57' E 023°38'0 0.0
2016-Jun-27 01:33N 37°57' E 023°38'1514.6
2016-Jun-27 00:34N 37°43' E 023°44'2019.0
2016-Jun-26 23:31N 37°30' E 024°02'4421.1
2016-Jun-26 21:27N 37°10' E 024°51'2412.7
2016-Jun-26 19:34N 37°07' E 025°21'6 6.5
2016-Jun-26 18:34N 37°01' E 025°20'3 0.3
2016-Jun-26 09:33N 37°03' E 025°18'20 9.9
2016-Jun-26 07:33N 37°12' E 024°56'6621.8
2016-Jun-26 04:33N 37°41' E 023°42'1615.7
2016-Jun-26 03:33N 37°57' E 023°38'0 0.0
2016-Jun-26 02:33N 37°57' E 023°38'0 0.0
2016-Jun-26 01:33N 37°57' E 023°38'0 0.0
2016-Jun-26 00:33N 37°57' E 023°38'0 0.0
2016-Jun-25 23:33N 37°57' E 023°38'0 0.0
2016-Jun-25 22:33N 37°57' E 023°38'0 0.0
2016-Jun-25 21:33N 37°57' E 023°38'0 0.0
2016-Jun-25 20:33N 37°57' E 023°38'0 0.0
2016-Jun-25 19:33N 37°57' E 023°38'0 0.0
2016-Jun-25 18:33N 37°57' E 023°38'0 0.0
2016-Jun-25 17:33N 37°57' E 023°38'2 2.1
2016-Jun-25 16:33N 37°55' E 023°37'2120.5
2016-Jun-25 15:33N 37°38' E 023°53'5617.7
2016-Jun-25 12:24N 37°29' E 025°02'910.3
2016-Jun-25 11:33N 37°30' E 025°13'5 5.5
2016-Jun-25 10:33N 37°28' E 025°19'9 9.1
2016-Jun-25 09:33N 37°32' E 025°09'6516.1
2016-Jun-25 05:33N 37°39' E 023°48'2019.5
2016-Jun-25 04:33N 37°57' E 023°38'0 0.2
2016-Jun-25 03:33N 37°57' E 023°38'0 0.0
2016-Jun-25 02:33N 37°57' E 023°38'0 0.0
2016-Jun-25 01:33N 37°57' E 023°38'0 0.0
2016-Jun-25 00:33N 37°57' E 023°38'0 0.0
2016-Jun-24 23:33N 37°57' E 023°38'0 0.0
2016-Jun-24 22:33N 37°57' E 023°38'0 0.0
2016-Jun-24 21:33N 37°57' E 023°38'0 0.0
2016-Jun-24 20:33N 37°57' E 023°38'0 0.0
2016-Jun-24 19:33N 37°57' E 023°38'0 0.0
2016-Jun-24 18:33N 37°57' E 023°38'0 0.0
2016-Jun-24 17:33N 37°57' E 023°38'0 0.0
2016-Jun-24 16:33N 37°57' E 023°38'0 0.0
2016-Jun-24 15:33N 37°57' E 023°38'0 0.0
2016-Jun-24 14:33N 37°57' E 023°38'0 0.0
2016-Jun-24 13:33N 37°57' E 023°38'0 0.0
2016-Jun-24 12:33N 37°57' E 023°38'8 8.3
2016-Jun-24 11:33N 37°49' E 023°41'6921.9
2016-Jun-24 08:25N 37°10' E 024°52'42 4.2
2016-Jun-23 22:30N 37°07' E 025°44'1718.3
2016-Jun-23 21:34N 37°08' E 025°23'8313.9
2016-Jun-23 15:33N 37°40' E 023°46'1818.1
2016-Jun-23 14:33N 37°57' E 023°38'0 0.1
2016-Jun-23 13:33N 37°57' E 023°38'0 0.0
2016-Jun-23 12:33N 37°57' E 023°38'8 8.1
2016-Jun-23 11:34N 37°49' E 023°41'6821.8
2016-Jun-23 08:26N 37°10' E 024°52'3912.8
2016-Jun-23 05:23N 37°08' E 025°41'2 0.3
2016-Jun-22 21:33N 37°08' E 025°43'1716.6
2016-Jun-22 20:34N 37°06' E 025°22'19 9.7
2016-Jun-22 18:33N 37°08' E 024°58'6521.5
2016-Jun-22 15:34N 37°38' E 023°46'2019.7
2016-Jun-22 14:34N 37°57' E 023°38'0 0.1
2016-Jun-22 13:33N 37°57' E 023°38'0 0.0
2016-Jun-22 12:34N 37°57' E 023°38'8 7.9
2016-Jun-22 11:34N 37°49' E 023°41'7121.9
2016-Jun-22 08:19N 37°09' E 024°55'2212.7
2016-Jun-22 06:34N 37°06' E 025°22'6 6.3
2016-Jun-22 05:33N 37°00' E 025°20'  
Track history (hours):
 
Tides and Currents Weather Stations Pressure Air Temp Water Temp Dewpoint Dewpoint Depression Visibility Wind Speed Wind Dir Waves Ship Positions

Blue Star Naxos

Last reported at 2016-Jul-02 04:33 UTC. Time now 2016-Jul-02 05:49 UTC.
Position N 37°57' E 023°38'.

Length 124 m; draft 5 m.

Type: Passenger vessel. MMSI: 239923000.

Date/timePositionNaut miles runAvg speedWind from/ knotsBaromVisibWave heightAir tempDewpointWater temp
2016-Jul-02 04:33N 37°57' E 023°38'0 0.1
2016-Jul-02 03:33N 37°57' E 023°38'0 0.0
2016-Jul-02 02:33N 37°57' E 023°38'0 0.0
2016-Jul-02 01:33N 37°57' E 023°38'0 0.0
2016-Jul-02 00:34N 37°57' E 023°38'0 0.0
2016-Jul-01 23:33N 37°57' E 023°38'0 0.0
2016-Jul-01 22:34N 37°57' E 023°38'0 0.0
2016-Jul-01 21:33N 37°57' E 023°38'0 0.0
2016-Jul-01 20:33N 37°57' E 023°38'0 0.0
2016-Jul-01 19:34N 37°57' E 023°38'0 0.0
2016-Jul-01 18:33N 37°57' E 023°38'0 0.0
2016-Jul-01 17:33N 37°57' E 023°38'6 6.2
2016-Jul-01 16:33N 37°51' E 023°40'2121.0
2016-Jul-01 15:33N 37°37' E 024°00'5015.7
2016-Jul-01 12:23N 37°29' E 025°02'1213.3
2016-Jul-01 11:29N 37°29' E 025°17'2 2.2
2016-Jul-01 10:34N 37°28' E 025°19'9 9.1
2016-Jul-01 09:34N 37°32' E 025°09'6516.3
2016-Jul-01 05:33N 37°39' E 023°47'1919.3
2016-Jul-01 04:33N 37°57' E 023°38'0 0.2
2016-Jul-01 03:33N 37°57' E 023°38'0 0.0
2016-Jul-01 02:33N 37°57' E 023°38'0 0.0
2016-Jul-01 01:33N 37°57' E 023°38'1514.7
2016-Jul-01 00:34N 37°43' E 023°44'1919.0
2016-Jun-30 23:33N 37°30' E 024°02'4420.9
2016-Jun-30 21:26N 37°10' E 024°52'2412.7
2016-Jun-30 19:33N 37°07' E 025°21'8 7.7
2016-Jun-30 18:34N 36°59' E 025°20'7 0.8
2016-Jun-30 09:33N 37°06' E 025°21'2110.4
2016-Jun-30 07:33N 37°12' E 024°56'6622.1
2016-Jun-30 04:34N 37°42' E 023°41'1514.7
2016-Jun-30 03:33N 37°57' E 023°38'0 0.0
2016-Jun-30 02:33N 37°57' E 023°38'0 0.0
2016-Jun-30 01:33N 37°57' E 023°38'0 0.0
2016-Jun-30 00:33N 37°57' E 023°38'0 0.0
2016-Jun-29 23:34N 37°57' E 023°38'0 0.0
2016-Jun-29 22:34N 37°57' E 023°38'0 0.0
2016-Jun-29 21:34N 37°57' E 023°38'0 0.0
2016-Jun-29 20:34N 37°57' E 023°38'0 0.0
2016-Jun-29 19:33N 37°57' E 023°38'0 0.0
2016-Jun-29 18:34N 37°57' E 023°38'0 0.0
2016-Jun-29 17:33N 37°57' E 023°38'2 2.4
2016-Jun-29 16:34N 37°54' E 023°38'2120.7
2016-Jun-29 15:33N 37°39' E 023°55'5516.8
2016-Jun-29 12:18N 37°29' E 025°03'1012.0
2016-Jun-29 11:27N 37°29' E 025°16'3 3.5
2016-Jun-29 10:33N 37°28' E 025°19'8 8.3
2016-Jun-29 09:33N 37°32' E 025°10'6516.3
2016-Jun-29 05:33N 37°39' E 023°49'2019.7
2016-Jun-29 04:33N 37°56' E 023°38'1 0.6
2016-Jun-29 03:33N 37°57' E 023°38'0 0.0
2016-Jun-29 02:33N 37°57' E 023°38'0 0.0
2016-Jun-29 01:33N 37°57' E 023°38'1515.0
2016-Jun-29 00:33N 37°43' E 023°45'2019.2
2016-Jun-28 23:31N 37°29' E 024°03'4320.8
2016-Jun-28 21:27N 37°10' E 024°51'2513.1
2016-Jun-28 19:34N 37°06' E 025°22'7 6.7
2016-Jun-28 18:33N 36°60' E 025°20'6 0.7
2016-Jun-28 09:33N 37°06' E 025°21'8617.3
2016-Jun-28 04:33N 37°42' E 023°42'1515.1
2016-Jun-28 03:32N 37°57' E 023°38'0 0.0
2016-Jun-28 02:27N 37°57' E 023°38'0 0.0
2016-Jun-28 01:32N 37°57' E 023°38'0 0.0
2016-Jun-28 00:33N 37°57' E 023°38'0 0.0
2016-Jun-27 23:33N 37°57' E 023°38'0 0.0
2016-Jun-27 22:33N 37°57' E 023°38'0 0.0
2016-Jun-27 21:33N 37°57' E 023°38'0 0.0
2016-Jun-27 20:33N 37°57' E 023°38'0 0.0
2016-Jun-27 19:33N 37°57' E 023°38'0 0.0
2016-Jun-27 18:33N 37°57' E 023°38'0 0.0
2016-Jun-27 17:33N 37°57' E 023°38'4 4.2
2016-Jun-27 16:33N 37°53' E 023°39'2120.8
2016-Jun-27 15:33N 37°38' E 023°57'5316.7
2016-Jun-27 12:23N 37°29' E 025°03'8 9.8
2016-Jun-27 11:34N 37°30' E 025°13'6 6.1
2016-Jun-27 10:33N 37°28' E 025°20'5 5.0
2016-Jun-27 09:33N 37°30' E 025°14'2311.6
2016-Jun-27 07:33N 37°31' E 024°45'4522.5
2016-Jun-27 05:34N 37°39' E 023°49'2019.7
2016-Jun-27 04:33N 37°57' E 023°38'0 0.4
2016-Jun-27 03:33N 37°57' E 023°38'0 0.0
2016-Jun-27 02:33N 37°57' E 023°38'0 0.0
2016-Jun-27 01:33N 37°57' E 023°38'1514.6
2016-Jun-27 00:34N 37°43' E 023°44'2019.0
2016-Jun-26 23:31N 37°30' E 024°02'4421.1
2016-Jun-26 21:27N 37°10' E 024°51'2412.7
2016-Jun-26 19:34N 37°07' E 025°21'6 6.5
2016-Jun-26 18:34N 37°01' E 025°20'3 0.3
2016-Jun-26 09:33N 37°03' E 025°18'20 9.9
2016-Jun-26 07:33N 37°12' E 024°56'6621.8
2016-Jun-26 04:33N 37°41' E 023°42'1615.7
2016-Jun-26 03:33N 37°57' E 023°38'0 0.0
2016-Jun-26 02:33N 37°57' E 023°38'0 0.0
2016-Jun-26 01:33N 37°57' E 023°38'0 0.0
2016-Jun-26 00:33N 37°57' E 023°38'0 0.0
2016-Jun-25 23:33N 37°57' E 023°38'0 0.0
2016-Jun-25 22:33N 37°57' E 023°38'0 0.0
2016-Jun-25 21:33N 37°57' E 023°38'0 0.0
2016-Jun-25 20:33N 37°57' E 023°38'0 0.0
2016-Jun-25 19:33N 37°57' E 023°38'0 0.0
2016-Jun-25 18:33N 37°57' E 023°38'0 0.0
2016-Jun-25 17:33N 37°57' E 023°38'2 2.1
2016-Jun-25 16:33N 37°55' E 023°37'2120.5
2016-Jun-25 15:33N 37°38' E 023°53'5617.7
2016-Jun-25 12:24N 37°29' E 025°02'910.3
2016-Jun-25 11:33N 37°30' E 025°13'5 5.5
2016-Jun-25 10:33N 37°28' E 025°19'9 9.1
2016-Jun-25 09:33N 37°32' E 025°09'6516.1
2016-Jun-25 05:33N 37°39' E 023°48'2019.5
2016-Jun-25 04:33N 37°57' E 023°38'0 0.2
2016-Jun-25 03:33N 37°57' E 023°38'0 0.0
2016-Jun-25 02:33N 37°57' E 023°38'0 0.0
2016-Jun-25 01:33N 37°57' E 023°38'0 0.0
2016-Jun-25 00:33N 37°57' E 023°38'0 0.0
2016-Jun-24 23:33N 37°57' E 023°38'0 0.0
2016-Jun-24 22:33N 37°57' E 023°38'0 0.0
2016-Jun-24 21:33N 37°57' E 023°38'0 0.0
2016-Jun-24 20:33N 37°57' E 023°38'0 0.0
2016-Jun-24 19:33N 37°57' E 023°38'0 0.0
2016-Jun-24 18:33N 37°57' E 023°38'0 0.0
2016-Jun-24 17:33N 37°57' E 023°38'0 0.0
2016-Jun-24 16:33N 37°57' E 023°38'0 0.0
2016-Jun-24 15:33N 37°57' E 023°38'0 0.0
2016-Jun-24 14:33N 37°57' E 023°38'0 0.0
2016-Jun-24 13:33N 37°57' E 023°38'0 0.0
2016-Jun-24 12:33N 37°57' E 023°38'8 8.3
2016-Jun-24 11:33N 37°49' E 023°41'6921.9
2016-Jun-24 08:25N 37°10' E 024°52'42 4.2
2016-Jun-23 22:30N 37°07' E 025°44'1718.3
2016-Jun-23 21:34N 37°08' E 025°23'8313.9
2016-Jun-23 15:33N 37°40' E 023°46'1818.1
2016-Jun-23 14:33N 37°57' E 023°38'0 0.1
2016-Jun-23 13:33N 37°57' E 023°38'0 0.0
2016-Jun-23 12:33N 37°57' E 023°38'8 8.1
2016-Jun-23 11:34N 37°49' E 023°41'6821.8
2016-Jun-23 08:26N 37°10' E 024°52'3912.8
2016-Jun-23 05:23N 37°08' E 025°41'2 0.3
2016-Jun-22 21:33N 37°08' E 025°43'1716.6
2016-Jun-22 20:34N 37°06' E 025°22'19 9.7
2016-Jun-22 18:33N 37°08' E 024°58'6521.5
2016-Jun-22 15:34N 37°38' E 023°46'2019.7
2016-Jun-22 14:34N 37°57' E 023°38'0 0.1
2016-Jun-22 13:33N 37°57' E 023°38'0 0.0
2016-Jun-22 12:34N 37°57' E 023°38'8 7.9
2016-Jun-22 11:34N 37°49' E 023°41'7121.9
2016-Jun-22 08:19N 37°09' E 024°55'2212.7
2016-Jun-22 06:34N 37°06' E 025°22'6 6.3
2016-Jun-22 05:33N 37°00' E 025°20'  

Dump ship's entire track history